sensor_id;sensor_type;location;lat;lon;timestamp;P1;durP1;ratioP1;P2;durP2;ratioP2
4084;SDS011;2057;50.858;6.572;2023-09-07T00:00:22;12.03;;;8.30;;
4084;SDS011;2057;50.858;6.572;2023-09-07T00:02:47;13.80;;;8.00;;
4084;SDS011;2057;50.858;6.572;2023-09-07T00:05:15;20.03;;;9.40;;
4084;SDS011;2057;50.858;6.572;2023-09-07T00:07:40;15.10;;;7.83;;
4084;SDS011;2057;50.858;6.572;2023-09-07T00:10:06;10.17;;;8.13;;
4084;SDS011;2057;50.858;6.572;2023-09-07T00:12:31;16.80;;;8.17;;
4084;SDS011;2057;50.858;6.572;2023-09-07T00:14:57;10.50;;;8.17;;
4084;SDS011;2057;50.858;6.572;2023-09-07T00:17:23;10.47;;;8.43;;
4084;SDS011;2057;50.858;6.572;2023-09-07T00:19:49;15.27;;;7.97;;
4084;SDS011;2057;50.858;6.572;2023-09-07T00:22:15;14.70;;;8.63;;
4084;SDS011;2057;50.858;6.572;2023-09-07T00:24:45;14.00;;;9.63;;
4084;SDS011;2057;50.858;6.572;2023-09-07T00:27:11;14.43;;;10.03;;
4084;SDS011;2057;50.858;6.572;2023-09-07T00:29:37;14.27;;;8.93;;
4084;SDS011;2057;50.858;6.572;2023-09-07T00:32:03;8.83;;;7.90;;
4084;SDS011;2057;50.858;6.572;2023-09-07T00:34:28;15.33;;;8.43;;
4084;SDS011;2057;50.858;6.572;2023-09-07T00:36:54;10.47;;;8.03;;
4084;SDS011;2057;50.858;6.572;2023-09-07T00:39:19;13.70;;;9.10;;
4084;SDS011;2057;50.858;6.572;2023-09-07T00:41:44;12.70;;;8.10;;
4084;SDS011;2057;50.858;6.572;2023-09-07T00:44:10;16.10;;;8.93;;
4084;SDS011;2057;50.858;6.572;2023-09-07T00:46:35;11.17;;;7.83;;
4084;SDS011;2057;50.858;6.572;2023-09-07T00:49:01;19.03;;;8.80;;
4084;SDS011;2057;50.858;6.572;2023-09-07T00:51:27;11.07;;;8.23;;
4084;SDS011;2057;50.858;6.572;2023-09-07T00:53:53;10.27;;;8.50;;
4084;SDS011;2057;50.858;6.572;2023-09-07T00:56:19;11.47;;;7.47;;
4084;SDS011;2057;50.858;6.572;2023-09-07T00:58:45;13.33;;;7.60;;
4084;SDS011;2057;50.858;6.572;2023-09-07T01:01:10;16.47;;;8.30;;
4084;SDS011;2057;50.858;6.572;2023-09-07T01:03:36;16.83;;;8.53;;
4084;SDS011;2057;50.858;6.572;2023-09-07T01:06:03;23.37;;;8.50;;
4084;SDS011;2057;50.858;6.572;2023-09-07T01:08:34;11.87;;;8.03;;
4084;SDS011;2057;50.858;6.572;2023-09-07T01:11:12;14.23;;;9.13;;
4084;SDS011;2057;50.858;6.572;2023-09-07T01:13:38;11.27;;;6.97;;
4084;SDS011;2057;50.858;6.572;2023-09-07T01:16:04;22.20;;;8.63;;
4084;SDS011;2057;50.858;6.572;2023-09-07T01:18:33;14.10;;;8.30;;
4084;SDS011;2057;50.858;6.572;2023-09-07T01:21:01;13.77;;;9.20;;
4084;SDS011;2057;50.858;6.572;2023-09-07T01:23:28;16.07;;;8.37;;
4084;SDS011;2057;50.858;6.572;2023-09-07T01:25:53;13.70;;;9.23;;
4084;SDS011;2057;50.858;6.572;2023-09-07T01:28:20;11.17;;;8.10;;
4084;SDS011;2057;50.858;6.572;2023-09-07T01:30:46;14.97;;;8.97;;
4084;SDS011;2057;50.858;6.572;2023-09-07T01:33:12;11.10;;;8.17;;
4084;SDS011;2057;50.858;6.572;2023-09-07T01:35:37;19.77;;;9.13;;
4084;SDS011;2057;50.858;6.572;2023-09-07T01:38:04;11.93;;;8.43;;
4084;SDS011;2057;50.858;6.572;2023-09-07T01:40:32;16.10;;;9.00;;
4084;SDS011;2057;50.858;6.572;2023-09-07T01:43:03;10.63;;;8.20;;
4084;SDS011;2057;50.858;6.572;2023-09-07T01:45:28;12.17;;;8.77;;
4084;SDS011;2057;50.858;6.572;2023-09-07T01:47:53;15.30;;;7.87;;
4084;SDS011;2057;50.858;6.572;2023-09-07T01:50:19;13.23;;;7.00;;
4084;SDS011;2057;50.858;6.572;2023-09-07T01:52:47;8.03;;;7.23;;
4084;SDS011;2057;50.858;6.572;2023-09-07T01:55:13;17.07;;;8.80;;
4084;SDS011;2057;50.858;6.572;2023-09-07T01:57:39;10.53;;;7.73;;
4084;SDS011;2057;50.858;6.572;2023-09-07T02:00:04;12.43;;;8.00;;
4084;SDS011;2057;50.858;6.572;2023-09-07T02:02:30;10.50;;;8.00;;
4084;SDS011;2057;50.858;6.572;2023-09-07T02:04:56;10.40;;;7.63;;
4084;SDS011;2057;50.858;6.572;2023-09-07T02:07:23;10.27;;;7.60;;
4084;SDS011;2057;50.858;6.572;2023-09-07T02:09:48;11.23;;;7.83;;
4084;SDS011;2057;50.858;6.572;2023-09-07T02:12:14;11.57;;;7.60;;
4084;SDS011;2057;50.858;6.572;2023-09-07T02:14:39;10.70;;;7.03;;
4084;SDS011;2057;50.858;6.572;2023-09-07T02:17:05;10.93;;;8.40;;
4084;SDS011;2057;50.858;6.572;2023-09-07T02:19:31;8.67;;;7.30;;
4084;SDS011;2057;50.858;6.572;2023-09-07T02:21:56;11.60;;;7.07;;
4084;SDS011;2057;50.858;6.572;2023-09-07T02:24:22;12.10;;;7.90;;
4084;SDS011;2057;50.858;6.572;2023-09-07T02:26:49;13.33;;;7.30;;
4084;SDS011;2057;50.858;6.572;2023-09-07T02:29:15;8.90;;;7.33;;
4084;SDS011;2057;50.858;6.572;2023-09-07T02:31:40;18.77;;;7.40;;
4084;SDS011;2057;50.858;6.572;2023-09-07T02:34:06;9.80;;;7.20;;
4084;SDS011;2057;50.858;6.572;2023-09-07T02:36:32;10.53;;;6.73;;
4084;SDS011;2057;50.858;6.572;2023-09-07T02:38:59;13.87;;;8.40;;
4084;SDS011;2057;50.858;6.572;2023-09-07T02:41:24;12.30;;;8.30;;
4084;SDS011;2057;50.858;6.572;2023-09-07T02:43:50;9.53;;;7.70;;
4084;SDS011;2057;50.858;6.572;2023-09-07T02:46:16;18.53;;;8.57;;
4084;SDS011;2057;50.858;6.572;2023-09-07T02:48:41;9.83;;;7.33;;
4084;SDS011;2057;50.858;6.572;2023-09-07T02:51:07;10.47;;;8.17;;
4084;SDS011;2057;50.858;6.572;2023-09-07T02:53:32;12.70;;;8.33;;
4084;SDS011;2057;50.858;6.572;2023-09-07T02:55:57;14.23;;;8.00;;
4084;SDS011;2057;50.858;6.572;2023-09-07T02:58:23;13.80;;;8.57;;
4084;SDS011;2057;50.858;6.572;2023-09-07T03:00:51;14.27;;;7.73;;
4084;SDS011;2057;50.858;6.572;2023-09-07T03:03:17;17.40;;;8.47;;
4084;SDS011;2057;50.858;6.572;2023-09-07T03:05:43;12.13;;;7.70;;
4084;SDS011;2057;50.858;6.572;2023-09-07T03:08:10;8.60;;;7.07;;
4084;SDS011;2057;50.858;6.572;2023-09-07T03:10:36;10.13;;;7.47;;
4084;SDS011;2057;50.858;6.572;2023-09-07T03:13:03;11.97;;;7.50;;
4084;SDS011;2057;50.858;6.572;2023-09-07T03:15:28;16.63;;;8.47;;
4084;SDS011;2057;50.858;6.572;2023-09-07T03:17:54;10.80;;;8.30;;
4084;SDS011;2057;50.858;6.572;2023-09-07T03:20:19;13.90;;;9.73;;
4084;SDS011;2057;50.858;6.572;2023-09-07T03:22:45;14.43;;;8.10;;
4084;SDS011;2057;50.858;6.572;2023-09-07T03:25:10;11.73;;;8.63;;
4084;SDS011;2057;50.858;6.572;2023-09-07T03:27:37;11.00;;;8.13;;
4084;SDS011;2057;50.858;6.572;2023-09-07T03:30:03;12.43;;;8.53;;
4084;SDS011;2057;50.858;6.572;2023-09-07T03:32:29;11.17;;;8.43;;
4084;SDS011;2057;50.858;6.572;2023-09-07T03:35:00;11.27;;;7.03;;
4084;SDS011;2057;50.858;6.572;2023-09-07T03:37:28;11.53;;;7.60;;
4084;SDS011;2057;50.858;6.572;2023-09-07T03:39:54;13.47;;;8.10;;
4084;SDS011;2057;50.858;6.572;2023-09-07T03:42:20;14.67;;;8.87;;
4084;SDS011;2057;50.858;6.572;2023-09-07T03:44:45;9.00;;;7.50;;
4084;SDS011;2057;50.858;6.572;2023-09-07T03:47:13;17.57;;;7.60;;
4084;SDS011;2057;50.858;6.572;2023-09-07T03:49:38;10.20;;;7.57;;
4084;SDS011;2057;50.858;6.572;2023-09-07T03:52:04;11.93;;;8.40;;
4084;SDS011;2057;50.858;6.572;2023-09-07T03:54:35;24.03;;;9.40;;
4084;SDS011;2057;50.858;6.572;2023-09-07T03:57:00;11.83;;;8.10;;
4084;SDS011;2057;50.858;6.572;2023-09-07T03:59:27;12.33;;;7.63;;
4084;SDS011;2057;50.858;6.572;2023-09-07T04:01:53;16.40;;;8.50;;
4084;SDS011;2057;50.858;6.572;2023-09-07T04:04:19;11.93;;;8.00;;
4084;SDS011;2057;50.858;6.572;2023-09-07T04:06:46;10.53;;;8.57;;
4084;SDS011;2057;50.858;6.572;2023-09-07T04:09:12;20.80;;;8.63;;
4084;SDS011;2057;50.858;6.572;2023-09-07T04:11:39;12.33;;;9.10;;
4084;SDS011;2057;50.858;6.572;2023-09-07T04:14:04;8.87;;;7.97;;
4084;SDS011;2057;50.858;6.572;2023-09-07T04:16:30;9.60;;;6.97;;
4084;SDS011;2057;50.858;6.572;2023-09-07T04:18:56;12.33;;;8.77;;
4084;SDS011;2057;50.858;6.572;2023-09-07T04:21:21;11.57;;;8.57;;
4084;SDS011;2057;50.858;6.572;2023-09-07T04:23:47;9.20;;;7.00;;
4084;SDS011;2057;50.858;6.572;2023-09-07T04:26:12;10.07;;;7.43;;
4084;SDS011;2057;50.858;6.572;2023-09-07T04:28:37;11.40;;;8.40;;
4084;SDS011;2057;50.858;6.572;2023-09-07T04:31:05;11.57;;;8.83;;
4084;SDS011;2057;50.858;6.572;2023-09-07T04:33:32;10.77;;;8.23;;
4084;SDS011;2057;50.858;6.572;2023-09-07T04:36:11;13.50;;;7.07;;
4084;SDS011;2057;50.858;6.572;2023-09-07T04:38:38;9.70;;;6.77;;
4084;SDS011;2057;50.858;6.572;2023-09-07T04:41:11;10.00;;;6.87;;
4084;SDS011;2057;50.858;6.572;2023-09-07T04:43:38;9.37;;;7.20;;
4084;SDS011;2057;50.858;6.572;2023-09-07T04:46:13;14.00;;;7.10;;
4084;SDS011;2057;50.858;6.572;2023-09-07T04:48:39;23.27;;;8.00;;
4084;SDS011;2057;50.858;6.572;2023-09-07T04:51:06;16.47;;;7.93;;
4084;SDS011;2057;50.858;6.572;2023-09-07T04:53:33;22.80;;;8.17;;
4084;SDS011;2057;50.858;6.572;2023-09-07T04:56:00;29.27;;;8.13;;
4084;SDS011;2057;50.858;6.572;2023-09-07T04:58:29;59.90;;;10.13;;
4084;SDS011;2057;50.858;6.572;2023-09-07T05:00:54;26.33;;;8.30;;
4084;SDS011;2057;50.858;6.572;2023-09-07T05:03:25;46.97;;;10.60;;
4084;SDS011;2057;50.858;6.572;2023-09-07T05:05:52;27.50;;;9.17;;
4084;SDS011;2057;50.858;6.572;2023-09-07T05:08:18;44.07;;;8.13;;
4084;SDS011;2057;50.858;6.572;2023-09-07T05:10:44;53.47;;;9.70;;
4084;SDS011;2057;50.858;6.572;2023-09-07T05:13:09;45.33;;;10.10;;
4084;SDS011;2057;50.858;6.572;2023-09-07T05:15:34;27.63;;;8.87;;
4084;SDS011;2057;50.858;6.572;2023-09-07T05:18:00;30.67;;;9.40;;
4084;SDS011;2057;50.858;6.572;2023-09-07T05:20:25;25.23;;;7.83;;
4084;SDS011;2057;50.858;6.572;2023-09-07T05:22:51;43.37;;;7.47;;
4084;SDS011;2057;50.858;6.572;2023-09-07T05:25:18;14.27;;;6.47;;
4084;SDS011;2057;50.858;6.572;2023-09-07T05:27:45;23.87;;;7.70;;
4084;SDS011;2057;50.858;6.572;2023-09-07T05:30:10;25.57;;;7.83;;
4084;SDS011;2057;50.858;6.572;2023-09-07T05:32:38;20.87;;;6.80;;
4084;SDS011;2057;50.858;6.572;2023-09-07T05:35:04;22.67;;;8.07;;
4084;SDS011;2057;50.858;6.572;2023-09-07T05:37:30;8.37;;;7.20;;
4084;SDS011;2057;50.858;6.572;2023-09-07T05:39:55;13.07;;;7.83;;
4084;SDS011;2057;50.858;6.572;2023-09-07T05:42:21;22.83;;;8.17;;
4084;SDS011;2057;50.858;6.572;2023-09-07T05:44:50;14.53;;;8.50;;
4084;SDS011;2057;50.858;6.572;2023-09-07T05:47:16;11.97;;;7.90;;
4084;SDS011;2057;50.858;6.572;2023-09-07T05:49:42;13.23;;;7.40;;
4084;SDS011;2057;50.858;6.572;2023-09-07T05:52:08;12.37;;;7.03;;
4084;SDS011;2057;50.858;6.572;2023-09-07T05:54:33;13.23;;;7.80;;
4084;SDS011;2057;50.858;6.572;2023-09-07T05:56:59;9.53;;;7.13;;
4084;SDS011;2057;50.858;6.572;2023-09-07T05:59:24;12.13;;;8.60;;
4084;SDS011;2057;50.858;6.572;2023-09-07T06:01:49;19.30;;;6.97;;
4084;SDS011;2057;50.858;6.572;2023-09-07T06:04:15;8.37;;;6.90;;
4084;SDS011;2057;50.858;6.572;2023-09-07T06:06:40;12.97;;;7.07;;
4084;SDS011;2057;50.858;6.572;2023-09-07T06:09:05;9.97;;;7.00;;
4084;SDS011;2057;50.858;6.572;2023-09-07T06:11:31;10.30;;;7.13;;
4084;SDS011;2057;50.858;6.572;2023-09-07T06:13:57;10.70;;;7.23;;
4084;SDS011;2057;50.858;6.572;2023-09-07T06:16:23;12.30;;;8.30;;
4084;SDS011;2057;50.858;6.572;2023-09-07T06:18:48;11.13;;;7.10;;
4084;SDS011;2057;50.858;6.572;2023-09-07T06:21:13;19.23;;;8.63;;
4084;SDS011;2057;50.858;6.572;2023-09-07T06:23:39;16.63;;;8.60;;
4084;SDS011;2057;50.858;6.572;2023-09-07T06:26:04;15.50;;;7.60;;
4084;SDS011;2057;50.858;6.572;2023-09-07T06:28:30;16.97;;;8.50;;
4084;SDS011;2057;50.858;6.572;2023-09-07T06:30:55;13.93;;;7.77;;
4084;SDS011;2057;50.858;6.572;2023-09-07T06:33:23;12.00;;;7.97;;
4084;SDS011;2057;50.858;6.572;2023-09-07T06:35:48;17.03;;;9.87;;
4084;SDS011;2057;50.858;6.572;2023-09-07T06:38:14;14.00;;;9.30;;
4084;SDS011;2057;50.858;6.572;2023-09-07T06:40:39;21.37;;;9.73;;
4084;SDS011;2057;50.858;6.572;2023-09-07T06:43:04;23.33;;;10.33;;
4084;SDS011;2057;50.858;6.572;2023-09-07T06:45:39;13.67;;;8.87;;
4084;SDS011;2057;50.858;6.572;2023-09-07T06:48:04;13.80;;;8.70;;
4084;SDS011;2057;50.858;6.572;2023-09-07T06:50:30;11.67;;;9.20;;
4084;SDS011;2057;50.858;6.572;2023-09-07T06:52:55;11.50;;;8.00;;
4084;SDS011;2057;50.858;6.572;2023-09-07T06:55:21;18.93;;;8.30;;
4084;SDS011;2057;50.858;6.572;2023-09-07T06:57:46;13.23;;;8.30;;
4084;SDS011;2057;50.858;6.572;2023-09-07T07:00:11;9.60;;;8.37;;
4084;SDS011;2057;50.858;6.572;2023-09-07T07:02:40;13.13;;;7.40;;
4084;SDS011;2057;50.858;6.572;2023-09-07T07:05:05;11.80;;;7.67;;
4084;SDS011;2057;50.858;6.572;2023-09-07T07:07:31;11.13;;;6.90;;
4084;SDS011;2057;50.858;6.572;2023-09-07T07:10:05;17.80;;;8.30;;
4084;SDS011;2057;50.858;6.572;2023-09-07T07:12:33;9.53;;;7.70;;
4084;SDS011;2057;50.858;6.572;2023-09-07T07:15:05;13.60;;;7.53;;
4084;SDS011;2057;50.858;6.572;2023-09-07T07:17:32;13.90;;;8.53;;
4084;SDS011;2057;50.858;6.572;2023-09-07T07:19:57;15.47;;;8.27;;
4084;SDS011;2057;50.858;6.572;2023-09-07T07:22:25;13.30;;;7.80;;
4084;SDS011;2057;50.858;6.572;2023-09-07T07:24:51;13.50;;;7.53;;
4084;SDS011;2057;50.858;6.572;2023-09-07T07:27:16;9.73;;;7.10;;
4084;SDS011;2057;50.858;6.572;2023-09-07T07:29:41;10.83;;;7.33;;
4084;SDS011;2057;50.858;6.572;2023-09-07T07:32:07;10.90;;;7.47;;
4084;SDS011;2057;50.858;6.572;2023-09-07T07:34:32;8.93;;;7.23;;
4084;SDS011;2057;50.858;6.572;2023-09-07T07:36:57;16.43;;;7.70;;
4084;SDS011;2057;50.858;6.572;2023-09-07T07:39:23;9.67;;;6.57;;
4084;SDS011;2057;50.858;6.572;2023-09-07T07:41:48;8.63;;;7.23;;
4084;SDS011;2057;50.858;6.572;2023-09-07T07:44:13;9.93;;;6.10;;
4084;SDS011;2057;50.858;6.572;2023-09-07T07:46:39;16.00;;;7.80;;
4084;SDS011;2057;50.858;6.572;2023-09-07T07:49:06;11.13;;;5.53;;
4084;SDS011;2057;50.858;6.572;2023-09-07T07:51:34;9.07;;;6.53;;
4084;SDS011;2057;50.858;6.572;2023-09-07T07:54:02;10.80;;;5.73;;
4084;SDS011;2057;50.858;6.572;2023-09-07T07:56:28;11.03;;;5.90;;
4084;SDS011;2057;50.858;6.572;2023-09-07T07:58:55;11.00;;;5.47;;
4084;SDS011;2057;50.858;6.572;2023-09-07T08:01:21;21.27;;;7.57;;
4084;SDS011;2057;50.858;6.572;2023-09-07T08:03:46;14.50;;;6.77;;
4084;SDS011;2057;50.858;6.572;2023-09-07T08:06:12;27.50;;;7.10;;
4084;SDS011;2057;50.858;6.572;2023-09-07T08:08:38;14.90;;;5.90;;
4084;SDS011;2057;50.858;6.572;2023-09-07T08:11:04;11.40;;;5.70;;
4084;SDS011;2057;50.858;6.572;2023-09-07T08:13:33;12.60;;;5.70;;
4084;SDS011;2057;50.858;6.572;2023-09-07T08:16:00;7.47;;;5.30;;
4084;SDS011;2057;50.858;6.572;2023-09-07T08:18:26;19.47;;;5.70;;
4084;SDS011;2057;50.858;6.572;2023-09-07T08:20:52;9.73;;;5.53;;
4084;SDS011;2057;50.858;6.572;2023-09-07T08:23:19;8.70;;;5.43;;
4084;SDS011;2057;50.858;6.572;2023-09-07T08:25:44;5.60;;;5.00;;
4084;SDS011;2057;50.858;6.572;2023-09-07T08:28:11;7.27;;;5.70;;
4084;SDS011;2057;50.858;6.572;2023-09-07T08:30:37;10.17;;;5.37;;
4084;SDS011;2057;50.858;6.572;2023-09-07T08:33:02;5.43;;;4.63;;
4084;SDS011;2057;50.858;6.572;2023-09-07T08:35:30;6.70;;;5.20;;
4084;SDS011;2057;50.858;6.572;2023-09-07T08:38:00;8.80;;;5.90;;
4084;SDS011;2057;50.858;6.572;2023-09-07T08:40:26;11.37;;;5.80;;
4084;SDS011;2057;50.858;6.572;2023-09-07T08:42:52;7.93;;;5.20;;
4084;SDS011;2057;50.858;6.572;2023-09-07T08:45:19;9.23;;;5.23;;
4084;SDS011;2057;50.858;6.572;2023-09-07T08:47:49;11.10;;;4.57;;
4084;SDS011;2057;50.858;6.572;2023-09-07T08:50:17;10.07;;;4.70;;
4084;SDS011;2057;50.858;6.572;2023-09-07T08:52:43;5.73;;;4.40;;
4084;SDS011;2057;50.858;6.572;2023-09-07T08:55:10;9.07;;;4.33;;
4084;SDS011;2057;50.858;6.572;2023-09-07T08:57:37;10.20;;;5.63;;
4084;SDS011;2057;50.858;6.572;2023-09-07T09:00:03;8.50;;;5.93;;
4084;SDS011;2057;50.858;6.572;2023-09-07T09:02:33;8.43;;;4.47;;
4084;SDS011;2057;50.858;6.572;2023-09-07T09:05:01;20.83;;;5.13;;
4084;SDS011;2057;50.858;6.572;2023-09-07T09:07:32;9.23;;;5.30;;
4084;SDS011;2057;50.858;6.572;2023-09-07T09:10:06;7.03;;;4.67;;
4084;SDS011;2057;50.858;6.572;2023-09-07T09:12:33;6.60;;;4.50;;
4084;SDS011;2057;50.858;6.572;2023-09-07T09:15:02;15.17;;;5.63;;
4084;SDS011;2057;50.858;6.572;2023-09-07T09:17:28;5.20;;;4.70;;
4084;SDS011;2057;50.858;6.572;2023-09-07T09:19:54;10.93;;;5.57;;
4084;SDS011;2057;50.858;6.572;2023-09-07T09:22:19;17.17;;;5.50;;
4084;SDS011;2057;50.858;6.572;2023-09-07T09:24:47;15.30;;;5.77;;
4084;SDS011;2057;50.858;6.572;2023-09-07T09:27:13;18.73;;;5.10;;
4084;SDS011;2057;50.858;6.572;2023-09-07T09:29:38;4.97;;;4.27;;
4084;SDS011;2057;50.858;6.572;2023-09-07T09:32:04;12.83;;;6.23;;
4084;SDS011;2057;50.858;6.572;2023-09-07T09:34:33;9.37;;;5.23;;
4084;SDS011;2057;50.858;6.572;2023-09-07T09:37:00;12.33;;;4.90;;
4084;SDS011;2057;50.858;6.572;2023-09-07T09:39:27;7.13;;;5.40;;
4084;SDS011;2057;50.858;6.572;2023-09-07T09:41:52;13.23;;;5.27;;
4084;SDS011;2057;50.858;6.572;2023-09-07T09:44:20;8.83;;;5.43;;
4084;SDS011;2057;50.858;6.572;2023-09-07T09:46:50;7.63;;;5.90;;
4084;SDS011;2057;50.858;6.572;2023-09-07T09:49:17;9.27;;;5.60;;
4084;SDS011;2057;50.858;6.572;2023-09-07T09:51:44;11.33;;;4.90;;
4084;SDS011;2057;50.858;6.572;2023-09-07T09:54:16;15.03;;;5.80;;
4084;SDS011;2057;50.858;6.572;2023-09-07T09:56:45;6.93;;;5.17;;
4084;SDS011;2057;50.858;6.572;2023-09-07T09:59:12;14.30;;;5.87;;
4084;SDS011;2057;50.858;6.572;2023-09-07T10:01:40;21.20;;;5.80;;
4084;SDS011;2057;50.858;6.572;2023-09-07T10:04:09;20.10;;;5.33;;
4084;SDS011;2057;50.858;6.572;2023-09-07T10:06:37;10.27;;;5.00;;
4084;SDS011;2057;50.858;6.572;2023-09-07T10:09:06;8.30;;;5.20;;
4084;SDS011;2057;50.858;6.572;2023-09-07T10:11:34;6.80;;;4.67;;
4084;SDS011;2057;50.858;6.572;2023-09-07T10:14:02;13.20;;;5.30;;
4084;SDS011;2057;50.858;6.572;2023-09-07T10:16:29;9.70;;;4.37;;
4084;SDS011;2057;50.858;6.572;2023-09-07T10:19:18;9.30;;;5.10;;
4084;SDS011;2057;50.858;6.572;2023-09-07T10:21:44;14.70;;;4.23;;
4084;SDS011;2057;50.858;6.572;2023-09-07T10:24:10;7.47;;;4.67;;
4084;SDS011;2057;50.858;6.572;2023-09-07T10:26:36;11.20;;;4.50;;
4084;SDS011;2057;50.858;6.572;2023-09-07T10:29:02;7.77;;;3.97;;
4084;SDS011;2057;50.858;6.572;2023-09-07T10:31:29;6.60;;;4.67;;
4084;SDS011;2057;50.858;6.572;2023-09-07T10:34:07;7.73;;;4.70;;
4084;SDS011;2057;50.858;6.572;2023-09-07T10:36:35;7.20;;;4.40;;
4084;SDS011;2057;50.858;6.572;2023-09-07T10:39:04;18.23;;;5.00;;
4084;SDS011;2057;50.858;6.572;2023-09-07T10:41:41;8.07;;;3.93;;
4084;SDS011;2057;50.858;6.572;2023-09-07T10:44:10;8.27;;;4.93;;
4084;SDS011;2057;50.858;6.572;2023-09-07T10:46:37;7.27;;;4.37;;
4084;SDS011;2057;50.858;6.572;2023-09-07T10:49:05;10.33;;;4.73;;
4084;SDS011;2057;50.858;6.572;2023-09-07T10:51:33;10.07;;;4.40;;
4084;SDS011;2057;50.858;6.572;2023-09-07T10:53:58;9.37;;;4.33;;
4084;SDS011;2057;50.858;6.572;2023-09-07T10:56:26;5.83;;;4.53;;
4084;SDS011;2057;50.858;6.572;2023-09-07T10:58:54;8.63;;;4.10;;
4084;SDS011;2057;50.858;6.572;2023-09-07T11:01:20;11.73;;;4.40;;
4084;SDS011;2057;50.858;6.572;2023-09-07T11:03:46;5.10;;;3.90;;
4084;SDS011;2057;50.858;6.572;2023-09-07T11:06:18;7.03;;;4.20;;
4084;SDS011;2057;50.858;6.572;2023-09-07T11:08:46;10.97;;;4.60;;
4084;SDS011;2057;50.858;6.572;2023-09-07T11:11:11;6.80;;;4.20;;
4084;SDS011;2057;50.858;6.572;2023-09-07T11:13:38;8.23;;;4.50;;
4084;SDS011;2057;50.858;6.572;2023-09-07T11:16:06;9.20;;;3.77;;
4084;SDS011;2057;50.858;6.572;2023-09-07T11:18:32;11.30;;;3.97;;
4084;SDS011;2057;50.858;6.572;2023-09-07T11:21:01;5.80;;;4.20;;
4084;SDS011;2057;50.858;6.572;2023-09-07T11:23:29;5.50;;;4.10;;
4084;SDS011;2057;50.858;6.572;2023-09-07T11:26:03;5.00;;;4.23;;
4084;SDS011;2057;50.858;6.572;2023-09-07T11:28:30;4.70;;;3.60;;
4084;SDS011;2057;50.858;6.572;2023-09-07T11:30:55;6.10;;;3.63;;
4084;SDS011;2057;50.858;6.572;2023-09-07T11:33:21;6.87;;;3.90;;
4084;SDS011;2057;50.858;6.572;2023-09-07T11:35:47;10.23;;;4.13;;
4084;SDS011;2057;50.858;6.572;2023-09-07T11:38:14;7.30;;;4.13;;
4084;SDS011;2057;50.858;6.572;2023-09-07T11:40:41;3.83;;;3.53;;
4084;SDS011;2057;50.858;6.572;2023-09-07T11:43:19;7.50;;;4.27;;
4084;SDS011;2057;50.858;6.572;2023-09-07T11:45:45;4.90;;;4.00;;
4084;SDS011;2057;50.858;6.572;2023-09-07T11:48:11;4.70;;;4.30;;
4084;SDS011;2057;50.858;6.572;2023-09-07T11:50:37;8.03;;;4.53;;
4084;SDS011;2057;50.858;6.572;2023-09-07T11:53:03;6.23;;;3.97;;
4084;SDS011;2057;50.858;6.572;2023-09-07T11:55:30;8.03;;;3.83;;
4084;SDS011;2057;50.858;6.572;2023-09-07T11:57:55;12.23;;;4.47;;
4084;SDS011;2057;50.858;6.572;2023-09-07T12:00:21;4.30;;;4.00;;
4084;SDS011;2057;50.858;6.572;2023-09-07T12:02:47;4.50;;;3.67;;
4084;SDS011;2057;50.858;6.572;2023-09-07T12:05:20;6.47;;;4.50;;
4084;SDS011;2057;50.858;6.572;2023-09-07T12:07:45;5.80;;;4.77;;
4084;SDS011;2057;50.858;6.572;2023-09-07T12:10:17;10.67;;;4.33;;
4084;SDS011;2057;50.858;6.572;2023-09-07T12:12:42;6.50;;;4.70;;
4084;SDS011;2057;50.858;6.572;2023-09-07T12:15:09;9.87;;;4.83;;
4084;SDS011;2057;50.858;6.572;2023-09-07T12:17:38;13.00;;;4.43;;
4084;SDS011;2057;50.858;6.572;2023-09-07T12:20:04;9.57;;;4.93;;
4084;SDS011;2057;50.858;6.572;2023-09-07T12:22:34;3.63;;;3.33;;
4084;SDS011;2057;50.858;6.572;2023-09-07T12:25:00;13.93;;;4.70;;
4084;SDS011;2057;50.858;6.572;2023-09-07T12:27:26;6.80;;;4.87;;
4084;SDS011;2057;50.858;6.572;2023-09-07T12:29:51;7.23;;;4.07;;
4084;SDS011;2057;50.858;6.572;2023-09-07T12:32:16;5.63;;;4.00;;
4084;SDS011;2057;50.858;6.572;2023-09-07T12:34:42;12.03;;;4.40;;
4084;SDS011;2057;50.858;6.572;2023-09-07T12:37:07;7.40;;;5.00;;
4084;SDS011;2057;50.858;6.572;2023-09-07T12:39:32;5.83;;;4.43;;
4084;SDS011;2057;50.858;6.572;2023-09-07T12:41:58;6.87;;;4.07;;
4084;SDS011;2057;50.858;6.572;2023-09-07T12:44:23;18.43;;;5.33;;
4084;SDS011;2057;50.858;6.572;2023-09-07T12:46:49;10.20;;;4.03;;
4084;SDS011;2057;50.858;6.572;2023-09-07T12:49:14;4.67;;;4.20;;
4084;SDS011;2057;50.858;6.572;2023-09-07T12:51:40;14.00;;;5.03;;
4084;SDS011;2057;50.858;6.572;2023-09-07T12:54:06;10.83;;;4.60;;
4084;SDS011;2057;50.858;6.572;2023-09-07T12:56:34;7.03;;;4.50;;
4084;SDS011;2057;50.858;6.572;2023-09-07T12:58:59;10.47;;;4.70;;
4084;SDS011;2057;50.858;6.572;2023-09-07T13:01:25;8.03;;;5.00;;
4084;SDS011;2057;50.858;6.572;2023-09-07T13:03:51;6.37;;;4.93;;
4084;SDS011;2057;50.858;6.572;2023-09-07T13:06:16;11.97;;;4.20;;
4084;SDS011;2057;50.858;6.572;2023-09-07T13:08:44;6.40;;;4.60;;
4084;SDS011;2057;50.858;6.572;2023-09-07T13:11:10;4.80;;;4.23;;
4084;SDS011;2057;50.858;6.572;2023-09-07T13:13:36;6.97;;;4.90;;
4084;SDS011;2057;50.858;6.572;2023-09-07T13:16:17;11.60;;;4.60;;
4084;SDS011;2057;50.858;6.572;2023-09-07T13:18:44;11.90;;;4.60;;
4084;SDS011;2057;50.858;6.572;2023-09-07T13:21:09;9.00;;;4.93;;
4084;SDS011;2057;50.858;6.572;2023-09-07T13:23:35;5.43;;;4.50;;
4084;SDS011;2057;50.858;6.572;2023-09-07T13:26:02;13.50;;;4.43;;
4084;SDS011;2057;50.858;6.572;2023-09-07T13:28:28;14.00;;;4.10;;
4084;SDS011;2057;50.858;6.572;2023-09-07T13:30:53;6.70;;;4.43;;
4084;SDS011;2057;50.858;6.572;2023-09-07T13:33:19;8.93;;;3.93;;
4084;SDS011;2057;50.858;6.572;2023-09-07T13:35:44;9.50;;;4.47;;
4084;SDS011;2057;50.858;6.572;2023-09-07T13:38:10;5.90;;;4.00;;
4084;SDS011;2057;50.858;6.572;2023-09-07T13:40:35;8.67;;;3.97;;
4084;SDS011;2057;50.858;6.572;2023-09-07T13:43:01;6.70;;;4.60;;
4084;SDS011;2057;50.858;6.572;2023-09-07T13:45:26;8.90;;;4.10;;
4084;SDS011;2057;50.858;6.572;2023-09-07T13:47:54;6.73;;;4.10;;
4084;SDS011;2057;50.858;6.572;2023-09-07T13:50:19;4.70;;;4.20;;
4084;SDS011;2057;50.858;6.572;2023-09-07T13:52:45;4.10;;;3.70;;
4084;SDS011;2057;50.858;6.572;2023-09-07T13:55:10;5.30;;;4.00;;
4084;SDS011;2057;50.858;6.572;2023-09-07T13:57:35;12.83;;;4.00;;
4084;SDS011;2057;50.858;6.572;2023-09-07T14:00:01;4.60;;;4.20;;
4084;SDS011;2057;50.858;6.572;2023-09-07T14:02:26;6.40;;;4.27;;
4084;SDS011;2057;50.858;6.572;2023-09-07T14:04:52;4.63;;;3.87;;
4084;SDS011;2057;50.858;6.572;2023-09-07T14:07:17;4.57;;;3.67;;
4084;SDS011;2057;50.858;6.572;2023-09-07T14:09:46;14.33;;;4.70;;
4084;SDS011;2057;50.858;6.572;2023-09-07T14:12:11;5.97;;;4.00;;
4084;SDS011;2057;50.858;6.572;2023-09-07T14:14:37;4.90;;;4.27;;
4084;SDS011;2057;50.858;6.572;2023-09-07T14:17:02;14.63;;;4.20;;
4084;SDS011;2057;50.858;6.572;2023-09-07T14:19:30;6.20;;;4.13;;
4084;SDS011;2057;50.858;6.572;2023-09-07T14:21:59;15.70;;;4.63;;
4084;SDS011;2057;50.858;6.572;2023-09-07T14:24:24;12.10;;;4.70;;
4084;SDS011;2057;50.858;6.572;2023-09-07T14:26:50;8.70;;;4.23;;
4084;SDS011;2057;50.858;6.572;2023-09-07T14:29:16;13.43;;;4.30;;
4084;SDS011;2057;50.858;6.572;2023-09-07T14:31:44;6.60;;;5.00;;
4084;SDS011;2057;50.858;6.572;2023-09-07T14:34:11;13.63;;;4.50;;
4084;SDS011;2057;50.858;6.572;2023-09-07T14:36:36;5.80;;;4.40;;
4084;SDS011;2057;50.858;6.572;2023-09-07T14:39:02;5.87;;;4.20;;
4084;SDS011;2057;50.858;6.572;2023-09-07T14:41:29;9.10;;;4.43;;
4084;SDS011;2057;50.858;6.572;2023-09-07T14:43:55;12.77;;;5.40;;
4084;SDS011;2057;50.858;6.572;2023-09-07T14:46:21;5.67;;;4.60;;
4084;SDS011;2057;50.858;6.572;2023-09-07T14:48:48;4.07;;;3.70;;
4084;SDS011;2057;50.858;6.572;2023-09-07T14:51:14;4.80;;;4.40;;
4084;SDS011;2057;50.858;6.572;2023-09-07T14:53:39;8.03;;;4.30;;
4084;SDS011;2057;50.858;6.572;2023-09-07T14:56:05;8.63;;;4.13;;
4084;SDS011;2057;50.858;6.572;2023-09-07T14:58:30;5.40;;;3.97;;
4084;SDS011;2057;50.858;6.572;2023-09-07T15:00:55;11.37;;;4.13;;